Time;durP1;ratioP1;P1;durP2;ratioP2;P2;SDS_P1;SDS_P2;PMS_P1;PMS_P2;Temp;Humidity;BMP_temperature;BMP_pressure;BME280_temperature;BME280_humidity;BME280_pressure;Samples;Min_cycle;Max_cycle;Signal;HPM_P1;HPM_P2
2021/12/11 08:24:46;;;;;;;;;;;-1.10;99.90;;;;;;6290141;22;19950;-81
2021/12/11 08:34:05;;;;;;;;;;;-0.90;99.90;;;;;;6259183;22;20292;-81
2021/12/11 08:42:53;;;;;;;;;;;-0.80;99.90;;;;;;6252483;22;19919;-81
2021/12/11 08:48:32;;;;;;;;;;;-1.90;99.90;;;;;;6214967;23;19923;-81
2021/12/11 09:05:12;;;;;;;;;;;-0.40;99.90;;;;;;6242536;22;19923;-81
2021/12/11 09:08:17;;;;;;;;;;;-0.40;99.90;;;;;;6214784;23;19924;-82
2021/12/11 09:13:42;;;;;;;;;;;-0.20;99.90;;;;;;6210216;23;19924;-81
2021/12/11 09:16:16;;;;;;;;;;;-0.10;99.90;;;;;;6208396;23;20307;-80
2021/12/11 09:18:47;;;;;;;;;;;-0.10;99.90;;;;;;6210847;23;20325;-81
2021/12/11 09:21:25;;;;;;;;;;;0.00;99.90;;;;;;6209842;23;19968;-81
2021/12/11 09:23:54;;;;;;;;;;;0.10;99.90;;;;;;6211524;23;19919;-81
2021/12/11 09:26:27;;;;;;;;;;;0.30;99.90;;;;;;6213679;23;20252;-81
2021/12/11 09:29:28;;;;;;;;;;;0.50;99.90;;;;;;6211752;23;19923;-81
2021/12/11 09:31:57;;;;;;;;;;;0.70;99.90;;;;;;6061734;23;19925;-81
2021/12/11 09:34:24;;;;;;;;;;;1.10;99.90;;;;;;6184831;23;20281;-82
2021/12/11 09:36:52;;;;;;;;;;;1.40;99.90;;;;;;6212782;23;19919;-81
2021/12/11 09:39:19;;;;;;;;;;;1.90;99.90;;;;;;6213883;23;19924;-81
2021/12/11 09:41:45;;;;;;;;;;;2.40;99.90;;;;;;6212773;23;19919;-81
2021/12/11 09:44:16;;;;;;;;;;;2.60;99.90;;;;;;6214190;23;20330;-82
2021/12/11 09:46:54;;;;;;;;;;;3.00;99.90;;;;;;6212013;23;19998;-82
2021/12/11 09:49:22;;;;;;;;;;;3.20;99.90;;;;;;6212806;23;20232;-82
2021/12/11 09:51:49;;;;;;;;;;;3.30;99.90;;;;;;6240590;23;19923;-82
2021/12/11 09:54:18;;;;;;;;;;;3.30;99.90;;;;;;6214096;23;20006;-80
2021/12/11 09:57:03;;;;;;;;;;;3.50;99.90;;;;;;6212955;23;19919;-79
2021/12/11 09:59:30;;;;;;;;;;;3.80;99.90;;;;;;6213417;23;20017;-82
2021/12/11 10:01:59;;;;;;;;;;;4.60;99.90;;;;;;6210125;23;19931;-81
2021/12/11 10:04:31;;;;;;;;;;;5.50;99.90;;;;;;6215634;22;20026;-81
2021/12/11 10:09:33;;;;;;;;;;;7.60;99.90;;;;;;6242886;22;19985;-81
2021/12/11 10:12:18;;;;;;;;;;;8.60;99.90;;;;;;6243848;22;20005;-82
2021/12/11 10:15:07;;;;;;;;;;;9.50;99.90;;;;;;6242635;22;19973;-82
2021/12/11 10:17:37;;;;;;;;;;;10.20;99.90;;;;;;6242814;22;20007;-82
2021/12/11 10:20:06;;;;;;;;;;;11.10;99.90;;;;;;6243117;22;20108;-83
2021/12/11 10:22:33;;;;;;;;;;;11.70;99.60;;;;;;6244219;22;19930;-83
2021/12/11 10:24:59;;;;;;;;;;;12.40;93.50;;;;;;6242378;22;19926;-82
2021/12/11 10:27:26;;;;;;;;;;;12.90;93.50;;;;;;6244245;22;19934;-83
2021/12/11 10:29:52;;;;;;;;;;;13.20;96.60;;;;;;6240604;22;19946;-83
2021/12/11 10:32:21;;;;;;;;;;;13.60;93.00;;;;;;6242080;22;20000;-83
2021/12/11 10:34:49;;;;;;;;;;;13.90;91.60;;;;;;6242672;22;19920;-83
2021/12/11 10:37:21;;;;;;;;;;;14.30;94.40;;;;;;6241906;22;19923;-83
2021/12/11 10:39:49;;;;;;;;;;;14.10;92.00;;;;;;6243457;22;19927;-83
2021/12/11 10:42:15;;;;;;;;;;;13.60;74.70;;;;;;6242140;22;19919;-83
2021/12/11 10:44:42;;;;;;;;;;;13.10;92.20;;;;;;6242968;22;19919;-83
2021/12/11 10:47:14;;;;;;;;;;;13.00;94.20;;;;;;6242278;22;20019;-83
2021/12/11 10:49:40;;;;;;;;;;;12.60;93.00;;;;;;6243890;22;19923;-82
2021/12/11 10:52:12;;;;;;;;;;;12.50;92.80;;;;;;6241039;22;19919;-83
2021/12/11 10:54:37;;;;;;;;;;;12.70;91.30;;;;;;6242510;22;19965;-83
2021/12/11 10:57:06;;;;;;;;;;;12.80;90.30;;;;;;6281753;22;20125;-82
2021/12/11 10:59:35;;;;;;;;;;;13.10;89.30;;;;;;6259909;22;19919;-83
2021/12/11 11:02:07;;;;;;;;;;;13.50;90.10;;;;;;6254531;22;19942;-83
2021/12/11 11:04:41;;;;;;;;;;;13.20;89.20;;;;;;6242730;22;19923;-84
2021/12/11 11:07:07;;;;;;;;;;;12.70;88.30;;;;;;6242786;22;20010;-84
2021/12/11 11:09:32;;;;;;;;;;;12.20;92.50;;;;;;6240792;22;20045;-82
2021/12/11 11:11:59;;;;;;;;;;;12.10;91.80;;;;;;6239309;22;19919;-83
2021/12/11 11:14:25;;;;;;;;;;;12.40;93.30;;;;;;6239661;22;20000;-83
2021/12/11 11:16:53;;;;;;;;;;;12.50;89.70;;;;;;6238856;22;19927;-83
2021/12/11 11:19:20;;;;;;;;;;;11.90;86.30;;;;;;6238857;22;20239;-83
2021/12/11 11:21:47;;;;;;;;;;;11.10;90.70;;;;;;6240580;22;20022;-83
2021/12/11 11:24:13;;;;;;;;;;;10.20;96.70;;;;;;6242645;22;20248;-83
2021/12/11 11:26:40;;;;;;;;;;;9.40;96.10;;;;;;6241487;22;19919;-83
2021/12/11 11:29:09;;;;;;;;;;;8.80;99.90;;;;;;6243341;22;19923;-82
2021/12/11 11:31:36;;;;;;;;;;;8.30;99.70;;;;;;6242559;22;19923;-89
2021/12/11 11:34:03;;;;;;;;;;;7.90;99.90;;;;;;6244871;22;19957;-83
2021/12/11 11:36:30;;;;;;;;;;;7.50;99.90;;;;;;6244447;22;19923;-83
2021/12/11 11:38:58;;;;;;;;;;;7.20;99.90;;;;;;6244819;22;19919;-83
2021/12/11 11:41:26;;;;;;;;;;;6.90;99.90;;;;;;6245206;22;20208;-84
2021/12/11 11:43:51;;;;;;;;;;;6.60;99.90;;;;;;6246547;22;19924;-83
2021/12/11 11:46:17;;;;;;;;;;;6.40;99.90;;;;;;6244032;22;20375;-82
2021/12/11 11:48:44;;;;;;;;;;;6.10;99.90;;;;;;6245587;22;19926;-83
2021/12/11 11:51:15;;;;;;;;;;;5.90;99.90;;;;;;6245153;22;19927;-82
2021/12/11 11:53:41;;;;;;;;;;;5.70;99.90;;;;;;6245176;22;20291;-82
2021/12/11 11:56:08;;;;;;;;;;;5.60;99.90;;;;;;6244193;22;19923;-81
2021/12/11 11:58:34;;;;;;;;;;;5.40;99.90;;;;;;6243970;22;19947;-82
2021/12/11 12:01:03;;;;;;;;;;;5.40;99.90;;;;;;6243133;22;19977;-82
2021/12/11 12:03:29;;;;;;;;;;;5.30;99.90;;;;;;6243147;22;19920;-81
2021/12/11 12:06:00;;;;;;;;;;;5.20;99.90;;;;;;6245253;22;19994;-82
2021/12/11 12:08:27;;;;;;;;;;;6.00;99.90;;;;;;6244113;22;19919;-81
2021/12/11 12:10:53;;;;;;;;;;;5.20;99.90;;;;;;6244354;22;20274;-82
2021/12/11 12:13:22;;;;;;;;;;;5.20;99.90;;;;;;6244758;22;19919;-82
2021/12/11 12:15:49;;;;;;;;;;;5.10;99.90;;;;;;6242597;22;19945;-82
2021/12/11 12:18:16;;;;;;;;;;;5.00;99.90;;;;;;6245714;22;19950;-81
2021/12/11 12:20:41;;;;;;;;;;;4.90;99.90;;;;;;6245048;22;20405;-81
2021/12/11 12:26:08;;;;;;;;;;;4.80;99.90;;;;;;6270568;22;20319;-80
2021/12/11 12:51:46;;;;;;;;;;;4.40;99.90;;;;;;6240219;22;19911;-80
2021/12/11 12:54:19;;;;;;;;;;;4.20;99.90;;;;;;6220694;23;19977;-80
2021/12/11 12:56:48;;;;;;;;;;;2.80;99.90;;;;;;6216964;23;19970;-80
2021/12/11 12:59:19;;;;;;;;;;;4.40;99.90;;;;;;6214739;23;19927;-83
2021/12/11 13:01:57;;;;;;;;;;;4.30;99.90;;;;;;6213719;23;19999;-80
2021/12/11 13:04:25;;;;;;;;;;;4.30;99.90;;;;;;6214575;23;20005;-81
2021/12/11 13:06:55;;;;;;;;;;;4.20;99.90;;;;;;6214559;23;19919;-79
2021/12/11 13:09:26;;;;;;;;;;;4.30;99.90;;;;;;6215088;23;19930;-83
2021/12/11 13:12:23;;;;;;;;;;;4.60;99.90;;;;;;6213758;23;20320;-84
2021/12/11 13:14:50;;;;;;;;;;;4.20;99.90;;;;;;6214170;23;19919;-83
2021/12/11 13:17:18;;;;;;;;;;;4.90;99.90;;;;;;6213367;23;20112;-82
2021/12/11 13:19:49;;;;;;;;;;;4.20;99.90;;;;;;6214094;23;19982;-84
2021/12/11 13:25:43;;;;;;;;;;;4.20;99.90;;;;;;6240335;23;19915;-83
2021/12/11 13:28:10;;;;;;;;;;;4.20;99.90;;;;;;6214824;23;19951;-81
2021/12/11 13:30:56;;;;;;;;;;;4.20;99.90;;;;;;6213307;23;20200;-81
2021/12/11 13:36:37;;;;;;;;;;;4.10;99.90;;;;;;6213879;23;19920;-82
2021/12/11 13:39:18;;;;;;;;;;;4.10;99.90;;;;;;6213924;23;19926;-81
2021/12/11 13:41:49;;;;;;;;;;;4.00;99.90;;;;;;6212451;23;19919;-83
2021/12/11 13:44:15;;;;;;;;;;;4.00;99.90;;;;;;6214306;23;19920;-83
2021/12/11 13:50:09;;;;;;;;;;;3.90;99.90;;;;;;6240392;23;19930;-82
2021/12/11 13:52:35;;;;;;;;;;;3.90;99.90;;;;;;6228289;22;19919;-83
2021/12/11 13:55:01;;;;;;;;;;;3.80;99.90;;;;;;6241695;22;19919;-82
2021/12/11 13:57:29;;;;;;;;;;;3.80;99.90;;;;;;6243751;22;20045;-83
2021/12/11 14:00:09;;;;;;;;;;;3.80;99.90;;;;;;6244468;22;19923;-83
2021/12/11 14:02:44;;;;;;;;;;;3.60;99.90;;;;;;6241426;22;19919;-81
2021/12/11 14:05:32;;;;;;;;;;;2.70;99.90;;;;;;6243526;22;20009;-82
2021/12/11 14:07:58;;;;;;;;;;;3.70;99.90;;;;;;6243199;22;20258;-83
2021/12/11 14:10:39;;;;;;;;;;;3.70;99.90;;;;;;6243158;22;19923;-84
2021/12/11 14:16:29;;;;;;;;;;;1.00;99.90;;;;;;6241176;22;20201;-82
2021/12/11 14:22:01;;;;;;;;;;;3.60;99.90;;;;;;6241639;22;19942;-82
2021/12/11 14:24:36;;;;;;;;;;;4.60;99.90;;;;;;6242917;22;20363;-84
2021/12/11 14:27:03;;;;;;;;;;;3.50;99.90;;;;;;6242641;22;19933;-86
2021/12/11 14:29:29;;;;;;;;;;;2.50;99.90;;;;;;6241000;22;19923;-83
2021/12/11 14:32:01;;;;;;;;;;;5.10;99.90;;;;;;6239941;22;19923;-82
2021/12/11 14:34:45;;;;;;;;;;;3.50;99.90;;;;;;6242301;22;19919;-83
2021/12/11 14:37:13;;;;;;;;;;;3.50;99.90;;;;;;6241088;22;20002;-82
2021/12/11 14:43:22;;;;;;;;;;;3.50;99.90;;;;;;6272156;22;19949;-82
2021/12/11 14:45:49;;;;;;;;;;;3.70;99.90;;;;;;6260267;22;19919;-83
2021/12/11 14:48:37;;;;;;;;;;;2.90;99.90;;;;;;6253827;22;19926;-82
2021/12/11 14:51:10;;;;;;;;;;;3.40;99.90;;;;;;6242619;22;19942;-82
2021/12/11 14:53:39;;;;;;;;;;;3.40;99.90;;;;;;6242361;22;21378;-84
2021/12/11 14:56:13;;;;;;;;;;;4.10;99.90;;;;;;6242968;22;20014;-83
2021/12/11 14:58:40;;;;;;;;;;;3.40;99.90;;;;;;6242381;22;19927;-83
2021/12/11 15:01:11;;;;;;;;;;;3.40;99.90;;;;;;6241908;22;19962;-83
2021/12/11 15:03:36;;;;;;;;;;;3.40;99.90;;;;;;6243740;22;19919;-84
2021/12/11 15:06:02;;;;;;;;;;;3.30;99.90;;;;;;6243456;22;19925;-82
2021/12/11 15:08:28;;;;;;;;;;;3.40;99.90;;;;;;6245736;22;19919;-83
2021/12/11 15:10:57;;;;;;;;;;;3.30;99.90;;;;;;6245551;22;19947;-83
2021/12/11 15:13:23;;;;;;;;;;;3.30;99.90;;;;;;6244896;22;20390;-83
2021/12/11 15:15:50;;;;;;;;;;;3.30;99.90;;;;;;6244058;22;19919;-83
2021/12/11 15:18:16;;;;;;;;;;;3.30;99.90;;;;;;6244173;22;20225;-82
2021/12/11 15:21:07;;;;;;;;;;;3.30;99.90;;;;;;6244511;22;19998;-83
2021/12/11 15:23:38;;;;;;;;;;;2.50;99.90;;;;;;6245534;22;20078;-83
2021/12/11 15:26:05;;;;;;;;;;;3.20;99.90;;;;;;6245130;22;20276;-84
2021/12/11 15:28:30;;;;;;;;;;;3.20;99.90;;;;;;6246915;22;19930;-87
2021/12/11 15:31:03;;;;;;;;;;;4.20;99.90;;;;;;6245598;22;19919;-86
2021/12/11 15:33:29;;;;;;;;;;;3.20;99.90;;;;;;6244861;22;20367;-87
2021/12/11 15:35:56;;;;;;;;;;;3.10;99.90;;;;;;6245681;22;19934;-86
2021/12/11 15:38:24;;;;;;;;;;;3.10;99.90;;;;;;6245878;22;19920;-86
2021/12/11 15:40:50;;;;;;;;;;;4.20;99.90;;;;;;6244836;22;20283;-87
2021/12/11 15:43:23;;;;;;;;;;;3.20;99.90;;;;;;6245993;22;19927;-85
2021/12/11 15:45:52;;;;;;;;;;;3.10;99.90;;;;;;6244881;22;19919;-86
2021/12/11 15:48:19;;;;;;;;;;;3.10;99.90;;;;;;6245382;22;20247;-86
2021/12/11 15:50:45;;;;;;;;;;;3.00;99.90;;;;;;6245228;22;19938;-86
2021/12/11 15:53:29;;;;;;;;;;;4.00;99.90;;;;;;6245401;22;20003;-86
2021/12/11 15:55:55;;;;;;;;;;;3.00;99.90;;;;;;6244521;22;19977;-86
2021/12/11 15:58:44;;;;;;;;;;;4.40;99.90;;;;;;6246278;22;19923;-86
2021/12/11 16:01:21;;;;;;;;;;;3.00;99.90;;;;;;6243741;22;19919;-86
2021/12/11 16:03:46;;;;;;;;;;;3.00;99.90;;;;;;6245576;22;20350;-85
2021/12/11 16:06:30;;;;;;;;;;;3.00;99.90;;;;;;6245867;22;19920;-86
2021/12/11 16:08:59;;;;;;;;;;;2.90;99.90;;;;;;6244557;22;19957;-87
2021/12/11 16:11:26;;;;;;;;;;;2.90;99.90;;;;;;6244929;22;19931;-85
2021/12/11 16:16:59;;;;;;;;;;;4.30;99.90;;;;;;6243210;22;19950;-85
2021/12/11 16:19:51;;;;;;;;;;;2.80;99.90;;;;;;6244576;22;19946;-85
2021/12/11 16:22:43;;;;;;;;;;;2.80;99.90;;;;;;6206737;23;19979;-86
2021/12/11 16:25:18;;;;;;;;;;;3.50;99.90;;;;;;6215598;23;20002;-87
2021/12/11 16:27:45;;;;;;;;;;;2.80;99.90;;;;;;6215408;23;19930;-86
2021/12/11 16:30:30;;;;;;;;;;;2.70;99.90;;;;;;6214293;23;19919;-87
2021/12/11 16:32:58;;;;;;;;;;;2.70;99.90;;;;;;6215075;23;19994;-87
2021/12/11 16:35:34;;;;;;;;;;;2.70;99.90;;;;;;6214007;23;19955;-86
2021/12/11 16:38:06;;;;;;;;;;;2.60;99.90;;;;;;6220150;23;19924;-85
2021/12/11 16:40:35;;;;;;;;;;;3.70;99.90;;;;;;6236090;23;19930;-85
2021/12/11 16:43:03;;;;;;;;;;;3.50;99.90;;;;;;6231662;23;20292;-85
2021/12/11 16:45:30;;;;;;;;;;;2.60;99.90;;;;;;6218132;23;19920;-86
2021/12/11 16:47:56;;;;;;;;;;;4.20;99.90;;;;;;6207902;23;19920;-86
2021/12/11 16:50:32;;;;;;;;;;;2.50;99.90;;;;;;6213818;23;20325;-85
2021/12/11 16:52:58;;;;;;;;;;;2.50;99.90;;;;;;6214041;23;20352;-85
2021/12/11 16:55:24;;;;;;;;;;;3.20;99.90;;;;;;6214568;23;20136;-86
2021/12/11 16:57:56;;;;;;;;;;;3.00;99.90;;;;;;6213667;23;19920;-86
2021/12/11 17:00:26;;;;;;;;;;;2.50;99.90;;;;;;6213422;23;19924;-82
2021/12/11 17:02:52;;;;;;;;;;;2.40;99.90;;;;;;6210317;23;19919;-83
2021/12/11 17:08:43;;;;;;;;;;;3.20;99.90;;;;;;6241116;23;19922;-84
2021/12/11 17:11:43;;;;;;;;;;;2.40;99.90;;;;;;6209928;23;20377;-83
2021/12/11 17:14:43;;;;;;;;;;;1.00;99.90;;;;;;6210652;23;20336;-83
2021/12/11 17:20:35;;;;;;;;;;;2.40;99.90;;;;;;6246492;22;19933;-81
2021/12/11 17:23:01;;;;;;;;;;;2.20;99.90;;;;;;6224445;22;19926;-82
2021/12/11 17:25:44;;;;;;;;;;;3.10;99.90;;;;;;6242154;22;19927;-82
2021/12/11 17:28:48;;;;;;;;;;;2.30;99.90;;;;;;6242664;22;19919;-82
2021/12/11 17:38:11;;;;;;;;;;;2.10;99.90;;;;;;6207532;23;19983;-82
2021/12/11 17:43:48;;;;;;;;;;;2.70;99.90;;;;;;6206377;23;20063;-83
2021/12/11 17:46:34;;;;;;;;;;;3.00;99.90;;;;;;6178682;23;20404;-82
2021/12/11 17:49:25;;;;;;;;;;;2.00;99.90;;;;;;6243195;22;19927;-82
2021/12/11 17:55:41;;;;;;;;;;;1.90;99.90;;;;;;6240724;22;19923;-89
2021/12/11 18:01:30;;;;;;;;;;;1.00;99.90;;;;;;6156058;23;19971;-84
2021/12/11 18:10:19;;;;;;;;;;;1.80;99.90;;;;;;6268159;22;20238;-84
2021/12/11 18:13:21;;;;;;;;;;;1.90;99.90;;;;;;6213521;23;20018;-82
2021/12/11 18:19:40;;;;;;;;;;;0.80;99.90;;;;;;6213536;23;19924;-83
2021/12/11 18:25:15;;;;;;;;;;;1.70;99.90;;;;;;6239045;23;19962;-82
2021/12/11 18:27:53;;;;;;;;;;;2.70;99.90;;;;;;6212677;23;19923;-82
2021/12/11 18:30:55;;;;;;;;;;;2.00;99.90;;;;;;6211292;23;20347;-82
2021/12/11 18:33:25;;;;;;;;;;;1.70;99.90;;;;;;6235856;23;19920;-83
2021/12/11 18:35:51;;;;;;;;;;;1.70;99.90;;;;;;6217671;23;19966;-82
2021/12/11 18:43:53;;;;;;;;;;;1.60;99.90;;;;;;6212812;23;20241;-83
2021/12/11 18:46:42;;;;;;;;;;;1.60;99.90;;;;;;6211214;23;19923;-83
2021/12/11 18:49:29;;;;;;;;;;;2.50;99.90;;;;;;6156482;23;19919;-82
2021/12/11 18:51:59;;;;;;;;;;;-0.10;99.90;;;;;;6213057;23;19958;-83
2021/12/11 18:54:30;;;;;;;;;;;0.70;99.90;;;;;;6211981;23;20347;-82
2021/12/11 19:03:37;;;;;;;;;;;1.50;99.90;;;;;;6212685;23;19920;-83
2021/12/11 19:09:45;;;;;;;;;;;1.50;99.90;;;;;;6240044;23;19991;-83
2021/12/11 19:15:29;;;;;;;;;;;0.10;99.90;;;;;;6241532;22;19923;-83
2021/12/11 19:17:58;;;;;;;;;;;2.70;99.90;;;;;;6241939;22;19923;-83
2021/12/11 19:20:27;;;;;;;;;;;2.90;99.90;;;;;;6243103;22;20310;-82
2021/12/11 19:22:55;;;;;;;;;;;1.50;99.90;;;;;;6243272;22;19919;-83
2021/12/11 19:25:46;;;;;;;;;;;2.30;99.90;;;;;;6240996;22;20522;-83
2021/12/11 19:28:37;;;;;;;;;;;2.20;99.90;;;;;;6243551;22;19957;-83
2021/12/11 19:31:37;;;;;;;;;;;1.40;99.90;;;;;;6242412;22;19919;-83
2021/12/11 19:34:04;;;;;;;;;;;1.40;99.90;;;;;;6244134;22;19927;-85
2021/12/11 19:39:58;;;;;;;;;;;1.50;99.90;;;;;;6270379;22;20002;-83
2021/12/11 19:42:58;;;;;;;;;;;1.40;99.90;;;;;;6242628;22;19924;-84
2021/12/11 19:45:54;;;;;;;;;;;-0.30;99.90;;;;;;6240991;22;19924;-85
2021/12/11 19:48:39;;;;;;;;;;;1.50;99.90;;;;;;6242994;22;19927;-82
2021/12/11 19:51:08;;;;;;;;;;;1.40;99.90;;;;;;6242858;22;19923;-84
2021/12/11 19:54:06;;;;;;;;;;;1.40;99.90;;;;;;6267285;22;19919;-86
2021/12/11 19:56:36;;;;;;;;;;;1.50;99.90;;;;;;6244877;22;20026;-85
2021/12/11 19:59:02;;;;;;;;;;;1.40;99.90;;;;;;6244950;22;19925;-85
2021/12/11 20:04:16;;;;;;;;;;;1.50;99.90;;;;;;6273365;22;19923;-83
2021/12/11 20:06:47;;;;;;;;;;;1.40;99.90;;;;;;6244839;22;19969;-82
2021/12/11 20:09:17;;;;;;;;;;;1.50;99.90;;;;;;6251936;22;19919;-83
2021/12/11 20:11:50;;;;;;;;;;;1.50;99.90;;;;;;6246265;22;20014;-84
2021/12/11 20:17:22;;;;;;;;;;;1.50;99.90;;;;;;6245470;22;19967;-85
2021/12/11 20:19:48;;;;;;;;;;;1.60;99.90;;;;;;6245589;22;19976;-83
2021/12/11 20:22:46;;;;;;;;;;;1.50;99.90;;;;;;6245053;22;19923;-83
2021/12/11 20:25:11;;;;;;;;;;;1.60;99.90;;;;;;6205726;22;19967;-86
2021/12/11 20:30:40;;;;;;;;;;;0.60;99.90;;;;;;6258626;22;20018;-86
2021/12/11 20:33:08;;;;;;;;;;;1.70;99.90;;;;;;6251723;22;19919;-85
2021/12/11 20:35:39;;;;;;;;;;;1.10;99.90;;;;;;6247921;22;20324;-84
2021/12/11 20:38:06;;;;;;;;;;;1.10;99.90;;;;;;6248159;22;19919;-84
2021/12/11 20:40:39;;;;;;;;;;;1.70;99.90;;;;;;6246083;22;19938;-84
2021/12/11 20:43:06;;;;;;;;;;;1.80;99.90;;;;;;6245140;22;19919;-86
2021/12/11 20:45:55;;;;;;;;;;;2.00;99.90;;;;;;6244419;22;19923;-84
2021/12/11 20:48:43;;;;;;;;;;;1.80;99.90;;;;;;6245366;22;19919;-84
2021/12/11 20:51:16;;;;;;;;;;;1.80;99.90;;;;;;6245329;22;19927;-82
2021/12/11 20:53:43;;;;;;;;;;;2.00;99.90;;;;;;6245331;22;19919;-83
2021/12/11 20:56:13;;;;;;;;;;;4.10;99.90;;;;;;6242121;22;19969;-84
2021/12/11 20:58:49;;;;;;;;;;;2.00;99.90;;;;;;6244483;22;19929;-85
2021/12/11 21:01:16;;;;;;;;;;;2.20;99.90;;;;;;6243565;22;19920;-84
2021/12/11 21:03:47;;;;;;;;;;;3.80;99.90;;;;;;6244260;22;19927;-84
2021/12/11 21:06:34;;;;;;;;;;;2.00;99.90;;;;;;6244059;22;19919;-84
2021/12/11 21:09:11;;;;;;;;;;;0.20;99.90;;;;;;6243596;22;19919;-85
2021/12/11 21:11:55;;;;;;;;;;;2.10;99.90;;;;;;6227513;22;19919;-84
2021/12/11 21:21:55;;;;;;;;;;;2.40;99.90;;;;;;6243039;22;19930;-82
2021/12/11 21:24:32;;;;;;;;;;;2.20;99.90;;;;;;6238306;22;20018;-87
2021/12/11 21:27:27;;;;;;;;;;;2.30;99.90;;;;;;6244091;22;20485;-84
2021/12/11 21:30:18;;;;;;;;;;;1.50;99.90;;;;;;6243062;22;19983;-81
2021/12/11 21:32:46;;;;;;;;;;;2.40;99.90;;;;;;6242791;22;19916;-83
2021/12/11 21:35:24;;;;;;;;;;;2.40;99.90;;;;;;6243748;22;19919;-83
2021/12/11 21:38:09;;;;;;;;;;;2.50;99.90;;;;;;6243609;22;19938;-83
2021/12/11 21:40:54;;;;;;;;;;;0.40;99.90;;;;;;6244336;22;19919;-83
2021/12/11 21:43:21;;;;;;;;;;;2.50;99.90;;;;;;6255134;22;19921;-83
2021/12/11 21:46:14;;;;;;;;;;;2.50;99.90;;;;;;6211985;23;20331;-80
2021/12/11 21:49:01;;;;;;;;;;;2.50;99.90;;;;;;6213118;23;19926;-81
2021/12/11 21:51:44;;;;;;;;;;;1.00;99.90;;;;;;6238280;23;19924;-80
2021/12/11 21:54:16;;;;;;;;;;;2.60;99.90;;;;;;6212864;23;19955;-81
2021/12/11 21:57:12;;;;;;;;;;;3.70;99.90;;;;;;6211469;23;20310;-84
2021/12/11 21:59:44;;;;;;;;;;;2.70;99.90;;;;;;6208121;23;19931;-85
2021/12/11 22:02:30;;;;;;;;;;;2.70;99.90;;;;;;6208561;23;19924;-83
2021/12/11 22:04:58;;;;;;;;;;;2.90;99.90;;;;;;6208604;23;19923;-83
2021/12/11 22:07:32;;;;;;;;;;;2.70;99.90;;;;;;6208723;23;19923;-84
2021/12/11 22:13:27;;;;;;;;;;;2.80;99.90;;;;;;6092586;23;19929;-85
2021/12/11 22:16:12;;;;;;;;;;;2.80;99.90;;;;;;6074342;23;19933;-84
2021/12/11 22:18:39;;;;;;;;;;;3.30;99.90;;;;;;6222685;23;19919;-84
2021/12/11 22:21:06;;;;;;;;;;;3.10;99.90;;;;;;6220472;23;19990;-84
2021/12/11 22:23:35;;;;;;;;;;;2.90;99.90;;;;;;6211736;23;20432;-85
2021/12/11 22:26:10;;;;;;;;;;;2.90;99.90;;;;;;6210325;23;19924;-85
2021/12/11 22:28:38;;;;;;;;;;;3.00;99.90;;;;;;6209994;23;20058;-86
2021/12/11 22:31:30;;;;;;;;;;;3.00;99.90;;;;;;6207129;23;19924;-84
2021/12/11 22:37:27;;;;;;;;;;;3.10;99.90;;;;;;6085584;23;20282;-83
2021/12/11 22:39:54;;;;;;;;;;;3.10;99.90;;;;;;6107732;23;19955;-84
2021/12/11 22:45:30;;;;;;;;;;;3.40;99.90;;;;;;6239905;22;19927;-84
2021/12/11 22:47:59;;;;;;;;;;;3.20;99.90;;;;;;6238990;22;19986;-84
2021/12/11 22:50:44;;;;;;;;;;;3.20;99.90;;;;;;6238555;22;19923;-83
2021/12/11 22:53:28;;;;;;;;;;;3.20;99.90;;;;;;6239297;22;19972;-82
2021/12/11 22:55:54;;;;;;;;;;;3.20;99.90;;;;;;6238163;22;19923;-83
2021/12/11 22:58:31;;;;;;;;;;;3.30;99.90;;;;;;6238574;22;19919;-82
2021/12/11 23:01:24;;;;;;;;;;;2.70;99.90;;;;;;6237888;22;20305;-83
2021/12/11 23:04:02;;;;;;;;;;;3.30;99.90;;;;;;6239891;22;19998;-82
2021/12/11 23:06:38;;;;;;;;;;;3.40;99.90;;;;;;6239914;22;19929;-82
2021/12/11 23:09:22;;;;;;;;;;;3.30;99.90;;;;;;6240643;22;19919;-83
2021/12/11 23:18:21;;;;;;;;;;;3.40;99.90;;;;;;6142535;23;19975;-85
2021/12/11 23:20:49;;;;;;;;;;;3.40;99.90;;;;;;6117030;23;19921;-83
2021/12/11 23:23:34;;;;;;;;;;;3.40;99.90;;;;;;6117776;23;20003;-81
2021/12/11 23:26:39;;;;;;;;;;;1.80;99.90;;;;;;6129591;23;20363;-79
2021/12/11 23:29:17;;;;;;;;;;;3.40;99.90;;;;;;6118472;23;19943;-81
2021/12/11 23:35:13;;;;;;;;;;;3.50;99.90;;;;;;6119988;23;19960;-83
2021/12/11 23:37:55;;;;;;;;;;;4.00;99.90;;;;;;6119291;23;20251;-82
2021/12/11 23:40:49;;;;;;;;;;;3.50;99.90;;;;;;6107966;23;19995;-83
2021/12/11 23:43:18;;;;;;;;;;;3.50;99.90;;;;;;6218192;22;20269;-83
2021/12/11 23:46:04;;;;;;;;;;;3.60;99.90;;;;;;6239492;22;19927;-84
2021/12/11 23:48:31;;;;;;;;;;;3.60;99.90;;;;;;6239725;22;19992;-85
2021/12/11 23:51:00;;;;;;;;;;;3.70;99.90;;;;;;6241990;22;19985;-84
2021/12/11 23:53:28;;;;;;;;;;;3.60;99.90;;;;;;6243783;22;19994;-83
2021/12/11 23:55:56;;;;;;;;;;;3.70;99.90;;;;;;6240545;22;19971;-85
2021/12/11 23:58:22;;;;;;;;;;;3.70;99.90;;;;;;6241172;22;19962;-84
